createdAt,value
2022-09-27T00:02:45.221Z,11.45
2022-09-27T00:05:33.800Z,11.28
2022-09-27T00:08:23.744Z,11.47
2022-09-27T00:11:26.352Z,11.48
2022-09-27T00:14:18.054Z,11.50
2022-09-27T00:17:06.665Z,11.51
2022-09-27T00:19:56.198Z,11.65
2022-09-27T00:22:44.732Z,11.69
2022-09-27T00:25:34.670Z,11.60
2022-09-27T00:28:23.325Z,11.71
2022-09-27T00:31:30.403Z,11.69
2022-09-27T00:34:21.426Z,11.65
2022-09-27T00:37:11.054Z,11.61
2022-09-27T00:39:59.807Z,11.61
2022-09-27T00:42:50.163Z,11.59
2022-09-27T00:45:38.725Z,11.63
2022-09-27T00:48:30.068Z,11.64
2022-09-27T00:51:18.744Z,11.48
2022-09-27T00:54:08.661Z,11.55
2022-09-27T00:56:57.536Z,11.49
2022-09-27T00:59:49.451Z,11.52
2022-09-27T01:02:39.628Z,11.14
2022-09-27T01:05:29.532Z,11.48
2022-09-27T01:08:18.087Z,11.59
2022-09-27T01:11:15.885Z,11.60
2022-09-27T01:14:22.756Z,11.64
2022-09-27T01:17:23.981Z,11.65
2022-09-27T01:20:45.271Z,11.65
2022-09-27T01:24:08.794Z,11.65
2022-09-27T01:27:19.589Z,11.52
2022-09-27T01:30:27.783Z,11.45
2022-09-27T01:33:25.570Z,11.51
2022-09-27T01:36:26.317Z,11.62
2022-09-27T01:39:33.571Z,11.49
2022-09-27T01:42:23.956Z,11.46
2022-09-27T01:45:18.726Z,11.47
2022-09-27T01:48:10.781Z,11.45
2022-09-27T01:51:05.220Z,11.36
2022-09-27T01:53:55.630Z,11.34
2022-09-27T01:56:47.766Z,11.26
2022-09-27T01:59:39.552Z,11.29
2022-09-27T02:02:32.066Z,11.39
2022-09-27T02:05:21.894Z,11.30
2022-09-27T02:08:20.016Z,11.30
2022-09-27T02:11:11.479Z,11.08
2022-09-27T02:14:05.188Z,10.82
2022-09-27T02:16:55.254Z,11.08
2022-09-27T02:19:54.368Z,11.16
2022-09-27T02:22:46.896Z,10.93
2022-09-27T02:25:39.750Z,11.26
2022-09-27T02:28:30.339Z,11.22
2022-09-27T02:31:20.246Z,11.24
2022-09-27T02:34:12.839Z,11.29
2022-09-27T02:37:02.973Z,11.20
2022-09-27T02:39:51.543Z,11.05
2022-09-27T02:42:40.180Z,11.24
2022-09-27T02:45:32.720Z,11.23
2022-09-27T02:48:32.002Z,11.22
2022-09-27T02:51:34.056Z,11.20
2022-09-27T02:54:31.712Z,11.18
2022-09-27T02:57:31.450Z,11.15
2022-09-27T03:00:22.189Z,11.15
2022-09-27T03:03:14.616Z,11.21
2022-09-27T03:06:05.780Z,11.18
2022-09-27T03:08:57.319Z,11.20
2022-09-27T03:11:47.366Z,11.20
2022-09-27T03:14:35.933Z,11.16
2022-09-27T03:17:24.992Z,11.17
2022-09-27T03:20:13.919Z,11.00
2022-09-27T03:23:02.471Z,11.17
2022-09-27T03:25:51.718Z,11.21
2022-09-27T03:28:41.761Z,11.18
2022-09-27T03:31:30.480Z,11.21
2022-09-27T03:34:19.165Z,11.18
2022-09-27T03:37:08.346Z,11.20
2022-09-27T03:39:56.906Z,11.13
2022-09-27T03:42:49.683Z,11.12
2022-09-27T03:45:39.843Z,11.13
2022-09-27T03:48:28.514Z,11.12
2022-09-27T03:51:17.116Z,11.14
2022-09-27T03:54:05.957Z,11.11
2022-09-27T03:56:54.456Z,11.08
2022-09-27T03:59:42.994Z,11.11
2022-09-27T04:02:33.005Z,11.14
2022-09-27T04:05:21.606Z,11.15
2022-09-27T04:08:11.056Z,11.13
2022-09-27T04:10:59.609Z,11.05
2022-09-27T04:13:48.755Z,11.11
2022-09-27T04:16:37.393Z,11.06
2022-09-27T04:19:27.376Z,11.13
2022-09-27T04:22:15.910Z,11.05
2022-09-27T04:25:04.483Z,11.11
2022-09-27T04:27:55.331Z,11.07
2022-09-27T04:30:43.930Z,11.12
2022-09-27T04:33:32.479Z,11.14
2022-09-27T04:36:29.420Z,11.14
2022-09-27T04:39:18.065Z,11.05
2022-09-27T04:42:07.138Z,11.06
2022-09-27T04:44:55.704Z,11.07
2022-09-27T04:47:45.024Z,11.05
2022-09-27T04:50:35.943Z,11.05
2022-09-27T04:53:26.751Z,11.03
2022-09-27T04:56:16.073Z,11.01
2022-09-27T04:59:09.998Z,11.00
2022-09-27T05:02:00.642Z,10.99
2022-09-27T05:04:49.194Z,11.01
2022-09-27T05:07:39.242Z,10.68
2022-09-27T05:10:29.218Z,10.93
2022-09-27T05:13:18.378Z,10.97
2022-09-27T05:16:07.724Z,11.01
2022-09-27T05:18:56.913Z,10.63
2022-09-27T05:21:45.483Z,10.97
2022-09-27T05:24:34.262Z,10.91
2022-09-27T05:27:24.197Z,10.94
2022-09-27T05:30:13.236Z,10.94
2022-09-27T05:33:01.805Z,10.98
2022-09-27T05:35:54.171Z,10.98
2022-09-27T05:38:43.474Z,10.96
2022-09-27T05:41:32.846Z,10.96
2022-09-27T05:44:23.064Z,10.69
2022-09-27T05:47:11.645Z,10.95
2022-09-27T05:50:00.241Z,10.94
2022-09-27T05:52:49.074Z,10.98
2022-09-27T05:55:37.846Z,10.95
2022-09-27T05:58:27.536Z,11.05
2022-09-27T06:01:18.065Z,11.00
2022-09-27T06:04:06.810Z,10.96
2022-09-27T06:06:55.337Z,10.94
2022-09-27T06:09:44.204Z,11.06
2022-09-27T06:12:32.797Z,11.06
2022-09-27T06:15:21.633Z,11.00
2022-09-27T06:18:12.833Z,10.99
2022-09-27T06:21:01.812Z,10.94
2022-09-27T06:23:54.134Z,10.81
2022-09-27T06:26:43.124Z,10.85
2022-09-27T06:29:35.612Z,10.81
2022-09-27T06:32:24.391Z,10.75
2022-09-27T06:35:14.475Z,10.70
2022-09-27T06:38:04.920Z,10.62
2022-09-27T06:40:53.587Z,10.60
2022-09-27T06:43:42.181Z,10.57
2022-09-27T06:46:30.760Z,10.64
2022-09-27T06:49:19.469Z,10.64
2022-09-27T06:52:09.659Z,10.63
2022-09-27T06:54:58.267Z,10.68
2022-09-27T06:58:04.107Z,10.74
2022-09-27T07:00:53.851Z,10.60
2022-09-27T07:03:44.181Z,10.79
2022-09-27T07:06:32.788Z,10.87
2022-09-27T07:09:22.968Z,10.82
2022-09-27T07:12:13.390Z,10.79
2022-09-27T07:15:01.942Z,10.83
2022-09-27T07:17:57.947Z,10.81
2022-09-27T07:20:46.537Z,10.72
2022-09-27T07:23:35.090Z,10.90
2022-09-27T07:26:25.009Z,11.06
2022-09-27T07:29:13.610Z,11.08
2022-09-27T07:32:02.693Z,11.16
2022-09-27T07:34:51.344Z,11.20
2022-09-27T07:37:39.905Z,11.41
2022-09-27T07:40:28.558Z,11.54
2022-09-27T07:43:19.488Z,11.48
2022-09-27T07:46:08.322Z,11.52
2022-09-27T07:48:56.965Z,11.51
2022-09-27T07:51:45.520Z,11.48
2022-09-27T07:54:34.091Z,11.56
2022-09-27T07:57:24.081Z,11.52
2022-09-27T08:00:16.114Z,11.52
2022-09-27T08:03:08.050Z,11.53
2022-09-27T08:05:56.709Z,11.71
2022-09-27T08:08:45.943Z,11.79
2022-09-27T08:11:35.492Z,11.79
2022-09-27T08:14:24.869Z,11.76
2022-09-27T08:17:15.215Z,11.55
2022-09-27T08:20:06.352Z,11.49
2022-09-27T08:22:54.974Z,11.62
2022-09-27T08:25:44.114Z,11.78
2022-09-27T08:28:33.372Z,11.74
2022-09-27T08:31:21.970Z,11.78
2022-09-27T08:34:12.029Z,11.87
2022-09-27T08:37:00.755Z,11.80
2022-09-27T08:39:49.341Z,12.01
2022-09-27T08:42:45.021Z,12.20
2022-09-27T08:45:36.382Z,12.31
2022-09-27T08:48:25.942Z,12.42
2022-09-27T08:51:16.115Z,12.42
2022-09-27T08:54:07.838Z,12.40
2022-09-27T08:57:03.687Z,12.52
2022-09-27T08:59:58.500Z,12.64
2022-09-27T09:02:47.109Z,12.46
2022-09-27T09:05:37.562Z,12.49
2022-09-27T09:08:33.343Z,12.48
2022-09-27T09:11:46.343Z,12.55
2022-09-27T09:14:46.827Z,12.46
2022-09-27T09:18:06.053Z,12.67
2022-09-27T09:20:58.599Z,12.61
2022-09-27T09:24:02.467Z,12.58
2022-09-27T09:26:58.731Z,12.36
2022-09-27T09:29:59.406Z,12.77
2022-09-27T09:33:16.482Z,12.81
2022-09-27T09:36:13.924Z,13.10
2022-09-27T09:39:07.497Z,13.43
2022-09-27T09:42:06.245Z,13.44
2022-09-27T09:45:00.710Z,13.37
2022-09-27T09:47:53.369Z,13.10
2022-09-27T09:50:45.662Z,12.76
2022-09-27T09:53:40.471Z,12.67
2022-09-27T09:56:33.019Z,12.82
2022-09-27T09:59:26.943Z,12.77
2022-09-27T10:02:22.655Z,12.69
2022-09-27T10:05:14.852Z,12.63
2022-09-27T10:08:05.558Z,12.59
2022-09-27T10:10:54.123Z,12.52
2022-09-27T10:13:44.093Z,12.41
2022-09-27T10:16:33.137Z,12.44
2022-09-27T10:19:28.378Z,12.43
2022-09-27T10:22:20.512Z,12.46
2022-09-27T10:25:10.911Z,12.75
2022-09-27T10:28:00.091Z,12.95
2022-09-27T10:30:56.474Z,12.92
2022-09-27T10:33:54.621Z,12.85
2022-09-27T10:36:43.377Z,12.72
2022-09-27T10:39:32.144Z,12.45
2022-09-27T10:42:32.011Z,12.60
2022-09-27T10:45:33.943Z,12.56
2022-09-27T10:48:23.949Z,12.48
2022-09-27T10:51:26.663Z,12.03
2022-09-27T10:54:21.184Z,11.76
2022-09-27T10:57:19.651Z,11.59
2022-09-27T11:00:20.615Z,11.26
2022-09-27T11:03:16.120Z,10.74
2022-09-27T11:06:21.172Z,10.85
2022-09-27T11:09:19.878Z,10.62
2022-09-27T11:12:10.795Z,10.69
2022-09-27T11:15:02.196Z,10.63
2022-09-27T11:17:57.577Z,10.33
2022-09-27T11:20:49.256Z,10.38
2022-09-27T11:23:52.618Z,10.29
2022-09-27T11:26:48.639Z,10.34
2022-09-27T11:29:44.609Z,10.11
2022-09-27T11:32:47.991Z,10.10
2022-09-27T11:35:47.275Z,9.87
2022-09-27T11:39:02.707Z,9.96
2022-09-27T11:42:05.972Z,9.89
2022-09-27T11:48:23.260Z,9.70
2022-09-27T11:51:23.869Z,9.84
2022-09-27T11:54:24.969Z,9.88
2022-09-27T11:57:19.385Z,9.87
2022-09-27T12:00:17.808Z,9.97
2022-09-27T12:03:30.658Z,10.29
2022-09-27T12:06:22.080Z,10.70
2022-09-27T12:09:13.945Z,11.03
2022-09-27T12:12:06.163Z,10.89
2022-09-27T12:14:59.823Z,10.97
2022-09-27T12:17:54.144Z,10.90
2022-09-27T12:20:43.575Z,10.71
2022-09-27T12:23:38.208Z,10.64
2022-09-27T12:26:29.207Z,10.58
2022-09-27T12:29:23.246Z,10.50
2022-09-27T12:32:15.939Z,10.82
2022-09-27T12:35:07.064Z,11.22
2022-09-27T12:38:00.965Z,11.71
2022-09-27T12:40:52.144Z,12.03
2022-09-27T12:43:44.762Z,12.13
2022-09-27T12:46:45.528Z,12.00
2022-09-27T12:49:42.797Z,11.65
2022-09-27T12:52:35.352Z,11.05
2022-09-27T12:55:41.334Z,12.03
2022-09-27T12:58:48.495Z,11.81
2022-09-27T13:01:51.795Z,11.93
2022-09-27T13:04:52.138Z,11.09
2022-09-27T13:07:52.265Z,11.84
2022-09-27T13:10:45.406Z,11.76
2022-09-27T13:13:36.576Z,11.63
2022-09-27T13:16:26.818Z,11.65
2022-09-27T13:19:43.296Z,11.70
2022-09-27T13:22:39.353Z,11.75
2022-09-27T13:25:55.475Z,11.89
2022-09-27T13:29:00.808Z,12.03
2022-09-27T13:32:23.611Z,12.09
2022-09-27T13:35:20.158Z,12.23
2022-09-27T13:38:22.434Z,12.25
2022-09-27T13:41:18.472Z,12.45
2022-09-27T13:44:14.173Z,12.42
2022-09-27T13:47:05.148Z,12.47
2022-09-27T13:49:54.857Z,12.42
2022-09-27T13:52:46.539Z,12.35
2022-09-27T13:55:45.092Z,12.23
2022-09-27T13:58:54.426Z,12.22
2022-09-27T14:01:46.598Z,12.14
2022-09-27T14:04:42.234Z,12.03
2022-09-27T14:07:37.371Z,11.85
2022-09-27T14:10:28.965Z,11.73
2022-09-27T14:13:20.284Z,11.61
2022-09-27T14:16:10.917Z,11.54
2022-09-27T14:19:00.139Z,11.53
2022-09-27T14:21:49.474Z,11.28
2022-09-27T14:24:46.910Z,11.39
2022-09-27T14:27:38.337Z,11.53
2022-09-27T14:30:28.927Z,11.77
2022-09-27T14:33:29.589Z,11.84
2022-09-27T14:36:44.108Z,11.85
2022-09-27T14:39:35.853Z,11.96
2022-09-27T14:42:26.616Z,11.97
2022-09-27T14:45:22.504Z,11.90
2022-09-27T14:48:20.772Z,11.95
2022-09-27T14:51:22.406Z,11.93
2022-09-27T14:54:22.124Z,11.99
2022-09-27T14:57:11.302Z,12.09
2022-09-27T15:00:01.159Z,12.02
2022-09-27T15:02:54.191Z,12.22
2022-09-27T15:05:43.029Z,12.33
2022-09-27T15:08:34.047Z,12.39
2022-09-27T15:11:22.717Z,12.45
2022-09-27T15:14:14.532Z,12.44
2022-09-27T15:17:06.029Z,12.32
2022-09-27T15:20:01.111Z,12.28
2022-09-27T15:22:49.790Z,12.25
2022-09-27T15:25:42.338Z,12.26
2022-09-27T15:28:30.865Z,12.25
2022-09-27T15:31:20.099Z,12.24
2022-09-27T15:34:18.904Z,12.26
2022-09-27T15:37:08.841Z,12.15
2022-09-27T15:40:07.900Z,12.16
2022-09-27T15:42:57.872Z,12.05
2022-09-27T15:45:51.404Z,12.00
2022-09-27T15:48:40.073Z,12.01
2022-09-27T15:51:42.215Z,12.13
2022-09-27T15:54:35.665Z,12.18
2022-09-27T15:57:24.332Z,11.55
2022-09-27T16:00:16.392Z,12.10
2022-09-27T16:03:05.203Z,11.44
2022-09-27T16:05:56.016Z,12.13
2022-09-27T16:08:45.219Z,12.05
2022-09-27T16:11:35.023Z,12.01
2022-09-27T16:14:23.487Z,12.03
2022-09-27T16:17:12.009Z,11.99
2022-09-27T16:20:00.513Z,11.96
2022-09-27T16:22:48.977Z,12.04
2022-09-27T16:25:37.466Z,11.92
2022-09-27T16:28:27.377Z,12.01
2022-09-27T16:31:17.273Z,12.02
2022-09-27T16:34:06.128Z,12.01
2022-09-27T16:36:54.578Z,12.01
2022-09-27T16:39:43.081Z,12.03
2022-09-27T16:42:31.588Z,12.12
2022-09-27T16:45:21.425Z,11.77
2022-09-27T16:48:09.984Z,11.99
2022-09-27T16:51:21.901Z,12.06
2022-09-27T16:54:10.520Z,12.11
2022-09-27T16:57:00.080Z,12.08
2022-09-27T16:59:48.924Z,12.11
2022-09-27T17:02:38.749Z,11.92
2022-09-27T17:05:27.411Z,11.86
2022-09-27T17:08:15.872Z,11.76
2022-09-27T17:11:04.337Z,11.69
2022-09-27T17:13:55.366Z,11.73
2022-09-27T17:16:43.937Z,11.74
2022-09-27T17:19:33.764Z,11.67
2022-09-27T17:22:22.237Z,11.51
2022-09-27T17:25:10.757Z,11.35
2022-09-27T17:27:59.345Z,11.34
2022-09-27T17:30:47.793Z,11.29
2022-09-27T17:33:41.696Z,11.31
2022-09-27T17:36:34.528Z,11.34
2022-09-27T17:39:23.254Z,11.23
2022-09-27T17:42:12.626Z,11.19
2022-09-27T17:45:01.215Z,11.08
2022-09-27T17:48:09.598Z,10.94
2022-09-27T17:51:01.388Z,10.96
2022-09-27T17:53:52.522Z,10.85
2022-09-27T17:56:42.536Z,10.45
2022-09-27T17:59:31.056Z,10.64
2022-09-27T18:02:20.234Z,10.53
2022-09-27T18:05:09.808Z,10.51
2022-09-27T18:08:00.242Z,10.20
2022-09-27T18:10:50.172Z,10.35
2022-09-27T18:13:41.715Z,10.30
2022-09-27T18:16:32.425Z,10.22
2022-09-27T18:19:21.158Z,10.25
2022-09-27T18:22:09.660Z,10.06
2022-09-27T18:24:58.114Z,10.19
2022-09-27T18:27:52.178Z,10.16
2022-09-27T18:30:40.652Z,10.17
2022-09-27T18:33:29.356Z,10.12
2022-09-27T18:36:19.657Z,10.04
2022-09-27T18:39:09.670Z,10.04
2022-09-27T18:41:58.198Z,10.01
2022-09-27T18:44:48.135Z,9.99
2022-09-27T18:47:36.684Z,9.73
2022-09-27T18:50:25.243Z,10.07
2022-09-27T18:53:13.826Z,9.85
2022-09-27T18:56:04.033Z,9.90
2022-09-27T18:58:53.109Z,9.99
2022-09-27T19:01:45.186Z,10.00
2022-09-27T19:04:34.275Z,9.94
2022-09-27T19:07:22.767Z,9.97
2022-09-27T19:10:11.222Z,9.99
2022-09-27T19:13:01.024Z,9.91
2022-09-27T19:15:55.420Z,9.16
2022-09-27T19:18:45.290Z,9.96
2022-09-27T19:21:33.831Z,9.90
2022-09-27T19:24:22.304Z,9.97
2022-09-27T19:27:10.799Z,10.05
2022-09-27T19:30:00.226Z,10.05
2022-09-27T19:32:49.100Z,10.08
2022-09-27T19:35:38.999Z,10.14
2022-09-27T19:38:27.429Z,10.12
2022-09-27T19:41:17.280Z,10.12
2022-09-27T19:44:06.666Z,10.24
2022-09-27T19:46:55.353Z,10.22
2022-09-27T19:49:43.916Z,10.29
2022-09-27T19:52:34.115Z,10.19
2022-09-27T19:55:22.598Z,10.29
2022-09-27T19:58:11.062Z,10.32
2022-09-27T20:01:01.423Z,10.27
2022-09-27T20:03:51.231Z,10.29
2022-09-27T20:06:39.841Z,10.36
2022-09-27T20:09:29.790Z,10.27
2022-09-27T20:12:18.228Z,10.28
2022-09-27T20:15:07.710Z,10.33
2022-09-27T20:17:56.116Z,10.31
2022-09-27T20:20:44.734Z,10.27
2022-09-27T20:23:34.840Z,10.30
2022-09-27T20:26:25.884Z,10.27
2022-09-27T20:29:14.492Z,10.43
2022-09-27T20:32:26.282Z,10.36
2022-09-27T20:35:11.594Z,10.38
2022-09-27T20:38:00.007Z,10.38
2022-09-27T20:40:59.023Z,10.47
2022-09-27T20:43:49.557Z,10.51
2022-09-27T20:46:39.682Z,10.54
2022-09-27T20:49:28.279Z,10.55
2022-09-27T20:52:16.816Z,10.36
2022-09-27T20:55:05.784Z,10.54
2022-09-27T20:57:57.774Z,10.55
2022-09-27T21:00:48.023Z,10.59
2022-09-27T21:03:36.509Z,10.73
2022-09-27T21:06:25.077Z,10.69
2022-09-27T21:09:18.507Z,10.74
2022-09-27T21:12:07.161Z,10.79
2022-09-27T21:14:55.652Z,10.72
2022-09-27T21:17:45.516Z,10.78
2022-09-27T21:20:34.253Z,10.61
2022-09-27T21:23:22.673Z,10.79
2022-09-27T21:26:13.362Z,10.78
2022-09-27T21:29:03.024Z,10.75
2022-09-27T21:31:51.522Z,10.72
2022-09-27T21:34:41.404Z,10.65
2022-09-27T21:37:29.829Z,10.81
2022-09-27T21:40:18.371Z,10.77
2022-09-27T21:43:07.216Z,10.82
2022-09-27T21:46:01.612Z,10.84
2022-09-27T21:48:52.517Z,10.93
2022-09-27T21:51:44.403Z,10.82
2022-09-27T21:54:32.864Z,10.79
2022-09-27T21:57:21.312Z,10.86
2022-09-27T22:00:11.345Z,10.89
2022-09-27T22:02:59.912Z,10.87
2022-09-27T22:05:49.740Z,10.88
2022-09-27T22:08:39.759Z,10.85
2022-09-27T22:11:29.543Z,10.72
2022-09-27T22:14:19.864Z,10.73
2022-09-27T22:17:08.325Z,10.68
2022-09-27T22:19:56.786Z,10.57
2022-09-27T22:22:45.240Z,10.66
2022-09-27T22:25:35.591Z,10.63
2022-09-27T22:28:24.079Z,10.70
2022-09-27T22:31:14.984Z,10.64
2022-09-27T22:34:05.253Z,10.39
2022-09-27T22:36:53.859Z,10.60
2022-09-27T22:39:42.350Z,10.63
2022-09-27T22:42:32.179Z,10.60
2022-09-27T22:45:20.621Z,10.61
2022-09-27T22:48:09.051Z,10.68
2022-09-27T22:50:58.004Z,10.71
2022-09-27T22:53:46.794Z,10.78
2022-09-27T22:56:35.296Z,10.69
2022-09-27T22:59:25.955Z,10.66
2022-09-27T23:02:14.440Z,10.66
2022-09-27T23:05:02.845Z,10.64
2022-09-27T23:07:52.371Z,10.63
2022-09-27T23:10:41.320Z,10.63
2022-09-27T23:13:31.584Z,10.63
2022-09-27T23:16:24.440Z,10.65
2022-09-27T23:19:15.036Z,10.68
2022-09-27T23:22:03.637Z,10.66
2022-09-27T23:24:52.033Z,10.69
2022-09-27T23:27:45.062Z,10.69
2022-09-27T23:30:34.447Z,10.70
2022-09-27T23:33:24.719Z,10.66
2022-09-27T23:36:16.602Z,9.80
2022-09-27T23:39:05.157Z,10.62
2022-09-27T23:41:53.772Z,10.60
2022-09-27T23:44:43.636Z,10.64
2022-09-27T23:47:32.681Z,10.58
2022-09-27T23:50:22.484Z,10.70
2022-09-27T23:53:10.900Z,10.43
2022-09-27T23:56:03.194Z,10.63
2022-09-27T23:58:51.705Z,10.64
